sensor_id;sensor_type;location;lat;lon;timestamp;P1;durP1;ratioP1;P2;durP2;ratioP2
3849;SDS011;1940;51.052;13.678;2024-02-04T00:01:18;2.97;;;1.90;;
3849;SDS011;1940;51.052;13.678;2024-02-04T00:03:44;2.90;;;1.80;;
3849;SDS011;1940;51.052;13.678;2024-02-04T00:06:09;2.33;;;1.80;;
3849;SDS011;1940;51.052;13.678;2024-02-04T00:08:35;2.67;;;1.87;;
3849;SDS011;1940;51.052;13.678;2024-02-04T00:11:01;2.33;;;1.80;;
3849;SDS011;1940;51.052;13.678;2024-02-04T00:13:29;3.20;;;2.23;;
3849;SDS011;1940;51.052;13.678;2024-02-04T00:15:55;3.30;;;2.23;;
3849;SDS011;1940;51.052;13.678;2024-02-04T00:18:23;3.30;;;2.10;;
3849;SDS011;1940;51.052;13.678;2024-02-04T00:20:49;3.03;;;2.00;;
3849;SDS011;1940;51.052;13.678;2024-02-04T00:23:14;2.33;;;1.80;;
3849;SDS011;1940;51.052;13.678;2024-02-04T00:25:40;2.40;;;1.70;;
3849;SDS011;1940;51.052;13.678;2024-02-04T00:28:06;2.30;;;1.97;;
3849;SDS011;1940;51.052;13.678;2024-02-04T00:30:32;4.47;;;2.07;;
3849;SDS011;1940;51.052;13.678;2024-02-04T00:32:57;3.27;;;2.23;;
3849;SDS011;1940;51.052;13.678;2024-02-04T00:35:27;2.67;;;2.27;;
3849;SDS011;1940;51.052;13.678;2024-02-04T00:37:53;2.60;;;1.70;;
3849;SDS011;1940;51.052;13.678;2024-02-04T00:40:19;2.67;;;2.20;;
3849;SDS011;1940;51.052;13.678;2024-02-04T00:42:44;3.37;;;1.87;;
3849;SDS011;1940;51.052;13.678;2024-02-04T00:45:10;2.00;;;1.70;;
3849;SDS011;1940;51.052;13.678;2024-02-04T00:47:36;2.30;;;1.80;;
3849;SDS011;1940;51.052;13.678;2024-02-04T00:50:01;4.77;;;2.00;;
3849;SDS011;1940;51.052;13.678;2024-02-04T00:52:27;3.13;;;2.43;;
3849;SDS011;1940;51.052;13.678;2024-02-04T00:54:52;2.60;;;1.93;;
3849;SDS011;1940;51.052;13.678;2024-02-04T00:57:18;2.73;;;2.10;;
3849;SDS011;1940;51.052;13.678;2024-02-04T00:59:43;2.87;;;1.80;;
3849;SDS011;1940;51.052;13.678;2024-02-04T01:02:09;2.80;;;2.20;;
3849;SDS011;1940;51.052;13.678;2024-02-04T01:04:34;2.03;;;1.70;;
3849;SDS011;1940;51.052;13.678;2024-02-04T01:07:00;2.40;;;1.83;;
3849;SDS011;1940;51.052;13.678;2024-02-04T01:09:25;2.13;;;1.70;;
3849;SDS011;1940;51.052;13.678;2024-02-04T01:11:51;1.87;;;1.60;;
3849;SDS011;1940;51.052;13.678;2024-02-04T01:14:18;3.03;;;1.73;;
3849;SDS011;1940;51.052;13.678;2024-02-04T01:16:43;2.23;;;1.77;;
3849;SDS011;1940;51.052;13.678;2024-02-04T01:19:09;3.23;;;1.93;;
3849;SDS011;1940;51.052;13.678;2024-02-04T01:21:34;8.60;;;1.93;;
3849;SDS011;1940;51.052;13.678;2024-02-04T01:24:00;2.80;;;1.77;;
3849;SDS011;1940;51.052;13.678;2024-02-04T01:26:25;4.77;;;1.67;;
3849;SDS011;1940;51.052;13.678;2024-02-04T01:28:51;2.10;;;1.60;;
3849;SDS011;1940;51.052;13.678;2024-02-04T01:31:16;2.53;;;1.90;;
3849;SDS011;1940;51.052;13.678;2024-02-04T01:33:42;2.33;;;1.63;;
3849;SDS011;1940;51.052;13.678;2024-02-04T01:36:07;2.33;;;1.90;;
3849;SDS011;1940;51.052;13.678;2024-02-04T01:38:33;2.87;;;1.60;;
3849;SDS011;1940;51.052;13.678;2024-02-04T01:40:58;4.23;;;1.93;;
3849;SDS011;1940;51.052;13.678;2024-02-04T01:43:24;3.33;;;1.60;;
3849;SDS011;1940;51.052;13.678;2024-02-04T01:45:50;5.40;;;2.07;;
3849;SDS011;1940;51.052;13.678;2024-02-04T01:48:18;2.57;;;1.70;;
3849;SDS011;1940;51.052;13.678;2024-02-04T01:50:45;2.47;;;1.60;;
3849;SDS011;1940;51.052;13.678;2024-02-04T01:53:13;2.13;;;1.50;;
3849;SDS011;1940;51.052;13.678;2024-02-04T01:55:40;2.77;;;1.70;;
3849;SDS011;1940;51.052;13.678;2024-02-04T01:58:06;3.30;;;1.60;;
3849;SDS011;1940;51.052;13.678;2024-02-04T02:00:31;2.20;;;1.73;;
3849;SDS011;1940;51.052;13.678;2024-02-04T02:02:57;2.90;;;1.63;;
3849;SDS011;1940;51.052;13.678;2024-02-04T02:05:24;2.00;;;1.30;;
3849;SDS011;1940;51.052;13.678;2024-02-04T02:07:51;2.93;;;1.80;;
3849;SDS011;1940;51.052;13.678;2024-02-04T02:10:17;1.90;;;1.50;;
3849;SDS011;1940;51.052;13.678;2024-02-04T02:12:46;2.20;;;1.60;;
3849;SDS011;1940;51.052;13.678;2024-02-04T02:15:20;2.40;;;1.80;;
3849;SDS011;1940;51.052;13.678;2024-02-04T02:17:52;1.70;;;1.50;;
3849;SDS011;1940;51.052;13.678;2024-02-04T02:20:27;2.93;;;2.00;;
3849;SDS011;1940;51.052;13.678;2024-02-04T02:23:03;2.30;;;1.90;;
3849;SDS011;1940;51.052;13.678;2024-02-04T02:25:32;3.00;;;2.03;;
3849;SDS011;1940;51.052;13.678;2024-02-04T02:28:00;3.00;;;2.17;;
3849;SDS011;1940;51.052;13.678;2024-02-04T02:30:26;3.10;;;1.90;;
3849;SDS011;1940;51.052;13.678;2024-02-04T02:32:51;5.80;;;2.43;;
3849;SDS011;1940;51.052;13.678;2024-02-04T02:35:17;5.53;;;3.17;;
3849;SDS011;1940;51.052;13.678;2024-02-04T02:37:46;3.30;;;2.57;;
3849;SDS011;1940;51.052;13.678;2024-02-04T02:40:30;3.50;;;2.73;;
3849;SDS011;1940;51.052;13.678;2024-02-04T02:43:04;3.70;;;2.80;;
3849;SDS011;1940;51.052;13.678;2024-02-04T02:45:31;5.03;;;2.90;;
3849;SDS011;1940;51.052;13.678;2024-02-04T02:47:57;4.10;;;2.93;;
3849;SDS011;1940;51.052;13.678;2024-02-04T02:50:24;4.30;;;2.80;;
3849;SDS011;1940;51.052;13.678;2024-02-04T02:52:49;6.43;;;3.10;;
3849;SDS011;1940;51.052;13.678;2024-02-04T02:55:15;4.00;;;2.90;;
3849;SDS011;1940;51.052;13.678;2024-02-04T02:57:41;6.23;;;3.60;;
3849;SDS011;1940;51.052;13.678;2024-02-04T03:00:06;5.77;;;3.07;;
3849;SDS011;1940;51.052;13.678;2024-02-04T03:02:32;4.97;;;2.90;;
3849;SDS011;1940;51.052;13.678;2024-02-04T03:04:58;5.17;;;3.10;;
3849;SDS011;1940;51.052;13.678;2024-02-04T03:07:23;5.37;;;3.30;;
3849;SDS011;1940;51.052;13.678;2024-02-04T03:09:49;4.00;;;2.83;;
3849;SDS011;1940;51.052;13.678;2024-02-04T03:12:14;4.67;;;3.00;;
3849;SDS011;1940;51.052;13.678;2024-02-04T03:14:40;7.80;;;3.20;;
3849;SDS011;1940;51.052;13.678;2024-02-04T03:17:05;4.93;;;3.20;;
3849;SDS011;1940;51.052;13.678;2024-02-04T03:19:31;4.43;;;3.17;;
3849;SDS011;1940;51.052;13.678;2024-02-04T03:21:56;4.00;;;3.00;;
3849;SDS011;1940;51.052;13.678;2024-02-04T03:24:22;3.60;;;2.33;;
3849;SDS011;1940;51.052;13.678;2024-02-04T03:26:47;2.60;;;2.07;;
3849;SDS011;1940;51.052;13.678;2024-02-04T03:29:13;4.90;;;2.90;;
3849;SDS011;1940;51.052;13.678;2024-02-04T03:31:38;4.00;;;1.90;;
3849;SDS011;1940;51.052;13.678;2024-02-04T03:34:04;3.67;;;2.27;;
3849;SDS011;1940;51.052;13.678;2024-02-04T03:36:30;5.97;;;1.87;;
3849;SDS011;1940;51.052;13.678;2024-02-04T03:38:55;2.70;;;1.97;;
3849;SDS011;1940;51.052;13.678;2024-02-04T03:41:21;2.80;;;1.60;;
3849;SDS011;1940;51.052;13.678;2024-02-04T03:43:46;2.50;;;1.80;;
3849;SDS011;1940;51.052;13.678;2024-02-04T03:46:13;4.90;;;1.80;;
3849;SDS011;1940;51.052;13.678;2024-02-04T03:48:42;2.53;;;1.83;;
3849;SDS011;1940;51.052;13.678;2024-02-04T03:51:08;3.27;;;2.00;;
3849;SDS011;1940;51.052;13.678;2024-02-04T03:53:33;3.97;;;2.17;;
3849;SDS011;1940;51.052;13.678;2024-02-04T03:55:59;2.60;;;1.87;;
3849;SDS011;1940;51.052;13.678;2024-02-04T03:58:24;3.53;;;2.00;;
3849;SDS011;1940;51.052;13.678;2024-02-04T04:00:57;2.33;;;2.03;;
3849;SDS011;1940;51.052;13.678;2024-02-04T04:03:22;4.23;;;2.43;;
3849;SDS011;1940;51.052;13.678;2024-02-04T04:05:48;3.47;;;2.47;;
3849;SDS011;1940;51.052;13.678;2024-02-04T04:08:14;5.80;;;2.70;;
3849;SDS011;1940;51.052;13.678;2024-02-04T04:10:39;4.10;;;2.90;;
3849;SDS011;1940;51.052;13.678;2024-02-04T04:13:05;4.87;;;3.17;;
3849;SDS011;1940;51.052;13.678;2024-02-04T04:15:30;4.73;;;2.83;;
3849;SDS011;1940;51.052;13.678;2024-02-04T04:17:56;4.30;;;2.80;;
3849;SDS011;1940;51.052;13.678;2024-02-04T04:20:21;5.50;;;3.10;;
3849;SDS011;1940;51.052;13.678;2024-02-04T04:22:47;3.73;;;2.60;;
3849;SDS011;1940;51.052;13.678;2024-02-04T04:25:12;3.70;;;2.53;;
3849;SDS011;1940;51.052;13.678;2024-02-04T04:27:39;3.77;;;2.83;;
3849;SDS011;1940;51.052;13.678;2024-02-04T04:30:04;4.00;;;2.10;;
3849;SDS011;1940;51.052;13.678;2024-02-04T04:32:30;3.57;;;2.37;;
3849;SDS011;1940;51.052;13.678;2024-02-04T04:34:57;3.90;;;2.20;;
3849;SDS011;1940;51.052;13.678;2024-02-04T04:37:22;3.23;;;2.30;;
3849;SDS011;1940;51.052;13.678;2024-02-04T04:39:48;3.63;;;2.30;;
3849;SDS011;1940;51.052;13.678;2024-02-04T04:42:13;5.10;;;2.10;;
3849;SDS011;1940;51.052;13.678;2024-02-04T04:44:38;3.73;;;2.53;;
3849;SDS011;1940;51.052;13.678;2024-02-04T04:47:05;3.10;;;2.07;;
3849;SDS011;1940;51.052;13.678;2024-02-04T04:49:30;3.27;;;2.10;;
3849;SDS011;1940;51.052;13.678;2024-02-04T04:51:56;2.77;;;1.97;;
3849;SDS011;1940;51.052;13.678;2024-02-04T04:54:21;3.97;;;2.17;;
3849;SDS011;1940;51.052;13.678;2024-02-04T04:56:47;2.80;;;1.70;;
3849;SDS011;1940;51.052;13.678;2024-02-04T04:59:14;3.47;;;2.20;;
3849;SDS011;1940;51.052;13.678;2024-02-04T05:01:50;3.07;;;2.10;;
3849;SDS011;1940;51.052;13.678;2024-02-04T05:04:15;3.10;;;2.00;;
3849;SDS011;1940;51.052;13.678;2024-02-04T05:06:43;5.00;;;2.47;;
3849;SDS011;1940;51.052;13.678;2024-02-04T05:09:09;8.57;;;2.70;;
3849;SDS011;1940;51.052;13.678;2024-02-04T05:11:34;3.10;;;2.00;;
3849;SDS011;1940;51.052;13.678;2024-02-04T05:14:00;3.10;;;2.17;;
3849;SDS011;1940;51.052;13.678;2024-02-04T05:16:25;3.10;;;1.87;;
3849;SDS011;1940;51.052;13.678;2024-02-04T05:18:51;5.87;;;1.93;;
3849;SDS011;1940;51.052;13.678;2024-02-04T05:21:16;3.27;;;1.93;;
3849;SDS011;1940;51.052;13.678;2024-02-04T05:23:42;3.30;;;2.00;;
3849;SDS011;1940;51.052;13.678;2024-02-04T05:26:07;2.90;;;1.80;;
3849;SDS011;1940;51.052;13.678;2024-02-04T05:28:33;3.70;;;1.80;;
3849;SDS011;1940;51.052;13.678;2024-02-04T05:30:58;3.27;;;1.90;;
3849;SDS011;1940;51.052;13.678;2024-02-04T05:33:25;4.27;;;1.90;;
3849;SDS011;1940;51.052;13.678;2024-02-04T05:35:51;3.40;;;1.93;;
3849;SDS011;1940;51.052;13.678;2024-02-04T05:38:16;3.07;;;2.20;;
3849;SDS011;1940;51.052;13.678;2024-02-04T05:40:42;2.70;;;2.00;;
3849;SDS011;1940;51.052;13.678;2024-02-04T05:43:07;4.47;;;2.53;;
3849;SDS011;1940;51.052;13.678;2024-02-04T05:45:35;3.10;;;2.07;;
3849;SDS011;1940;51.052;13.678;2024-02-04T05:48:05;3.27;;;2.33;;
3849;SDS011;1940;51.052;13.678;2024-02-04T05:50:32;4.07;;;2.53;;
3849;SDS011;1940;51.052;13.678;2024-02-04T05:52:57;3.73;;;2.40;;
3849;SDS011;1940;51.052;13.678;2024-02-04T05:55:23;3.70;;;2.40;;
3849;SDS011;1940;51.052;13.678;2024-02-04T05:57:48;3.80;;;2.53;;
3849;SDS011;1940;51.052;13.678;2024-02-04T06:00:14;3.30;;;2.30;;
3849;SDS011;1940;51.052;13.678;2024-02-04T06:02:40;3.60;;;2.27;;
3849;SDS011;1940;51.052;13.678;2024-02-04T06:05:08;3.03;;;2.17;;
3849;SDS011;1940;51.052;13.678;2024-02-04T06:07:34;3.57;;;2.37;;
3849;SDS011;1940;51.052;13.678;2024-02-04T06:09:59;6.13;;;2.57;;
3849;SDS011;1940;51.052;13.678;2024-02-04T06:12:26;4.63;;;2.20;;
3849;SDS011;1940;51.052;13.678;2024-02-04T06:14:51;3.63;;;2.30;;
3849;SDS011;1940;51.052;13.678;2024-02-04T06:17:17;3.93;;;2.30;;
3849;SDS011;1940;51.052;13.678;2024-02-04T06:19:42;5.03;;;2.20;;
3849;SDS011;1940;51.052;13.678;2024-02-04T06:22:08;3.60;;;2.23;;
3849;SDS011;1940;51.052;13.678;2024-02-04T06:24:33;2.90;;;1.93;;
3849;SDS011;1940;51.052;13.678;2024-02-04T06:26:59;3.53;;;2.53;;
3849;SDS011;1940;51.052;13.678;2024-02-04T06:29:24;3.27;;;1.90;;
3849;SDS011;1940;51.052;13.678;2024-02-04T06:31:50;3.50;;;2.13;;
3849;SDS011;1940;51.052;13.678;2024-02-04T06:34:15;4.23;;;2.03;;
3849;SDS011;1940;51.052;13.678;2024-02-04T06:36:44;3.03;;;2.07;;
3849;SDS011;1940;51.052;13.678;2024-02-04T06:39:10;3.50;;;2.20;;
3849;SDS011;1940;51.052;13.678;2024-02-04T06:41:35;2.63;;;1.80;;
3849;SDS011;1940;51.052;13.678;2024-02-04T06:44:02;3.27;;;2.10;;
3849;SDS011;1940;51.052;13.678;2024-02-04T06:46:29;3.40;;;2.40;;
3849;SDS011;1940;51.052;13.678;2024-02-04T06:48:54;3.00;;;2.10;;
3849;SDS011;1940;51.052;13.678;2024-02-04T06:51:20;3.70;;;2.40;;
3849;SDS011;1940;51.052;13.678;2024-02-04T06:53:46;3.50;;;1.90;;
3849;SDS011;1940;51.052;13.678;2024-02-04T06:56:11;3.67;;;2.27;;
3849;SDS011;1940;51.052;13.678;2024-02-04T06:58:37;2.63;;;2.03;;
3849;SDS011;1940;51.052;13.678;2024-02-04T07:01:03;4.33;;;1.90;;
3849;SDS011;1940;51.052;13.678;2024-02-04T07:03:29;7.60;;;2.07;;
3849;SDS011;1940;51.052;13.678;2024-02-04T07:05:55;2.47;;;2.00;;
3849;SDS011;1940;51.052;13.678;2024-02-04T07:08:22;2.80;;;1.97;;
3849;SDS011;1940;51.052;13.678;2024-02-04T07:10:47;2.97;;;1.90;;
3849;SDS011;1940;51.052;13.678;2024-02-04T07:13:16;2.10;;;1.37;;
3849;SDS011;1940;51.052;13.678;2024-02-04T07:15:42;2.30;;;1.67;;
3849;SDS011;1940;51.052;13.678;2024-02-04T07:18:08;3.10;;;1.97;;
3849;SDS011;1940;51.052;13.678;2024-02-04T07:20:34;2.57;;;1.73;;
3849;SDS011;1940;51.052;13.678;2024-02-04T07:22:59;4.43;;;1.70;;
3849;SDS011;1940;51.052;13.678;2024-02-04T07:25:25;2.10;;;1.60;;
3849;SDS011;1940;51.052;13.678;2024-02-04T07:27:51;2.03;;;1.40;;
3849;SDS011;1940;51.052;13.678;2024-02-04T07:30:17;2.13;;;1.40;;
3849;SDS011;1940;51.052;13.678;2024-02-04T07:32:42;4.60;;;1.30;;
3849;SDS011;1940;51.052;13.678;2024-02-04T07:35:08;2.73;;;1.50;;
3849;SDS011;1940;51.052;13.678;2024-02-04T07:37:34;1.60;;;1.27;;
3849;SDS011;1940;51.052;13.678;2024-02-04T07:40:00;1.60;;;1.30;;
3849;SDS011;1940;51.052;13.678;2024-02-04T07:42:26;1.27;;;1.10;;
3849;SDS011;1940;51.052;13.678;2024-02-04T07:44:52;1.83;;;1.50;;
3849;SDS011;1940;51.052;13.678;2024-02-04T07:47:18;1.40;;;1.10;;
3849;SDS011;1940;51.052;13.678;2024-02-04T07:49:46;1.80;;;1.13;;
3849;SDS011;1940;51.052;13.678;2024-02-04T07:52:14;1.67;;;1.00;;
3849;SDS011;1940;51.052;13.678;2024-02-04T07:54:40;1.13;;;0.97;;
3849;SDS011;1940;51.052;13.678;2024-02-04T07:57:06;1.23;;;1.00;;
3849;SDS011;1940;51.052;13.678;2024-02-04T07:59:31;2.40;;;1.00;;
3849;SDS011;1940;51.052;13.678;2024-02-04T08:01:58;1.50;;;1.10;;
3849;SDS011;1940;51.052;13.678;2024-02-04T08:04:23;1.00;;;0.90;;
3849;SDS011;1940;51.052;13.678;2024-02-04T08:06:49;1.30;;;1.00;;
3849;SDS011;1940;51.052;13.678;2024-02-04T08:09:14;1.40;;;1.00;;
3849;SDS011;1940;51.052;13.678;2024-02-04T08:11:40;1.10;;;1.00;;
3849;SDS011;1940;51.052;13.678;2024-02-04T08:14:06;1.13;;;0.87;;
3849;SDS011;1940;51.052;13.678;2024-02-04T08:16:31;1.83;;;1.00;;
3849;SDS011;1940;51.052;13.678;2024-02-04T08:18:57;0.80;;;0.67;;
3849;SDS011;1940;51.052;13.678;2024-02-04T08:21:23;1.20;;;1.00;;
3849;SDS011;1940;51.052;13.678;2024-02-04T08:23:50;1.37;;;0.90;;
3849;SDS011;1940;51.052;13.678;2024-02-04T08:26:15;1.10;;;0.80;;
3849;SDS011;1940;51.052;13.678;2024-02-04T08:28:41;1.60;;;1.17;;
3849;SDS011;1940;51.052;13.678;2024-02-04T08:31:06;1.00;;;0.80;;
3849;SDS011;1940;51.052;13.678;2024-02-04T08:33:32;0.80;;;0.80;;
3849;SDS011;1940;51.052;13.678;2024-02-04T08:35:57;1.50;;;1.13;;
3849;SDS011;1940;51.052;13.678;2024-02-04T08:38:23;1.10;;;1.00;;
3849;SDS011;1940;51.052;13.678;2024-02-04T08:40:48;1.07;;;0.90;;
3849;SDS011;1940;51.052;13.678;2024-02-04T08:43:14;1.10;;;0.90;;
3849;SDS011;1940;51.052;13.678;2024-02-04T08:45:39;1.20;;;1.00;;
3849;SDS011;1940;51.052;13.678;2024-02-04T08:48:05;2.70;;;0.80;;
3849;SDS011;1940;51.052;13.678;2024-02-04T08:50:31;1.03;;;0.73;;
3849;SDS011;1940;51.052;13.678;2024-02-04T08:52:56;1.90;;;0.87;;
3849;SDS011;1940;51.052;13.678;2024-02-04T08:55:22;1.20;;;0.70;;
3849;SDS011;1940;51.052;13.678;2024-02-04T08:57:48;0.97;;;0.70;;
3849;SDS011;1940;51.052;13.678;2024-02-04T09:00:14;1.10;;;0.70;;
3849;SDS011;1940;51.052;13.678;2024-02-04T09:02:40;1.30;;;0.80;;
3849;SDS011;1940;51.052;13.678;2024-02-04T09:05:06;0.83;;;0.70;;
3849;SDS011;1940;51.052;13.678;2024-02-04T09:07:32;1.73;;;0.80;;
3849;SDS011;1940;51.052;13.678;2024-02-04T09:09:58;1.03;;;0.70;;
3849;SDS011;1940;51.052;13.678;2024-02-04T09:12:23;1.10;;;0.90;;
3849;SDS011;1940;51.052;13.678;2024-02-04T09:14:48;1.60;;;0.90;;
3849;SDS011;1940;51.052;13.678;2024-02-04T09:17:14;3.97;;;0.97;;
3849;SDS011;1940;51.052;13.678;2024-02-04T09:19:39;0.87;;;0.80;;
3849;SDS011;1940;51.052;13.678;2024-02-04T09:22:05;1.10;;;0.80;;
3849;SDS011;1940;51.052;13.678;2024-02-04T09:24:31;1.30;;;0.90;;
3849;SDS011;1940;51.052;13.678;2024-02-04T09:26:57;1.97;;;1.13;;
3849;SDS011;1940;51.052;13.678;2024-02-04T09:29:23;1.27;;;0.90;;
3849;SDS011;1940;51.052;13.678;2024-02-04T09:31:48;1.50;;;1.00;;
3849;SDS011;1940;51.052;13.678;2024-02-04T09:34:18;1.10;;;1.00;;
3849;SDS011;1940;51.052;13.678;2024-02-04T09:36:44;1.00;;;0.80;;
3849;SDS011;1940;51.052;13.678;2024-02-04T09:39:10;1.70;;;1.23;;
3849;SDS011;1940;51.052;13.678;2024-02-04T09:41:35;1.43;;;1.00;;
3849;SDS011;1940;51.052;13.678;2024-02-04T09:44:01;1.80;;;1.20;;
3849;SDS011;1940;51.052;13.678;2024-02-04T09:46:31;1.40;;;1.10;;
3849;SDS011;1940;51.052;13.678;2024-02-04T09:48:57;3.73;;;0.97;;
3849;SDS011;1940;51.052;13.678;2024-02-04T09:51:22;1.10;;;0.80;;
3849;SDS011;1940;51.052;13.678;2024-02-04T09:53:51;1.00;;;0.80;;
3849;SDS011;1940;51.052;13.678;2024-02-04T09:56:18;1.10;;;0.70;;
3849;SDS011;1940;51.052;13.678;2024-02-04T09:58:44;2.13;;;0.90;;
3849;SDS011;1940;51.052;13.678;2024-02-04T10:01:10;0.90;;;0.80;;
3849;SDS011;1940;51.052;13.678;2024-02-04T10:03:37;1.30;;;1.00;;
3849;SDS011;1940;51.052;13.678;2024-02-04T10:06:02;1.00;;;0.80;;
3849;SDS011;1940;51.052;13.678;2024-02-04T10:08:28;1.50;;;0.80;;
3849;SDS011;1940;51.052;13.678;2024-02-04T10:10:54;1.43;;;1.00;;
3849;SDS011;1940;51.052;13.678;2024-02-04T10:13:20;1.57;;;0.90;;
3849;SDS011;1940;51.052;13.678;2024-02-04T10:15:47;1.23;;;0.87;;
3849;SDS011;1940;51.052;13.678;2024-02-04T10:18:13;2.27;;;1.00;;
3849;SDS011;1940;51.052;13.678;2024-02-04T10:20:38;1.37;;;1.00;;
3849;SDS011;1940;51.052;13.678;2024-02-04T10:23:04;2.10;;;1.17;;
3849;SDS011;1940;51.052;13.678;2024-02-04T10:25:29;1.17;;;1.00;;
3849;SDS011;1940;51.052;13.678;2024-02-04T10:27:55;2.30;;;1.33;;
3849;SDS011;1940;51.052;13.678;2024-02-04T10:30:22;4.87;;;1.47;;
3849;SDS011;1940;51.052;13.678;2024-02-04T10:32:50;1.97;;;1.50;;
3849;SDS011;1940;51.052;13.678;2024-02-04T10:35:16;3.10;;;1.90;;
3849;SDS011;1940;51.052;13.678;2024-02-04T10:37:45;2.30;;;1.43;;
3849;SDS011;1940;51.052;13.678;2024-02-04T10:40:11;2.50;;;1.80;;
3849;SDS011;1940;51.052;13.678;2024-02-04T10:42:36;2.40;;;1.40;;
3849;SDS011;1940;51.052;13.678;2024-02-04T10:45:03;8.13;;;1.97;;
3849;SDS011;1940;51.052;13.678;2024-02-04T10:47:33;3.43;;;2.10;;
3849;SDS011;1940;51.052;13.678;2024-02-04T10:50:02;2.33;;;1.67;;
3849;SDS011;1940;51.052;13.678;2024-02-04T10:52:28;2.30;;;1.80;;
3849;SDS011;1940;51.052;13.678;2024-02-04T10:55:05;2.93;;;1.60;;
3849;SDS011;1940;51.052;13.678;2024-02-04T10:57:33;2.47;;;1.70;;
3849;SDS011;1940;51.052;13.678;2024-02-04T10:59:59;3.20;;;1.40;;
3849;SDS011;1940;51.052;13.678;2024-02-04T11:02:29;2.90;;;1.87;;
3849;SDS011;1940;51.052;13.678;2024-02-04T11:04:56;1.93;;;1.47;;
3849;SDS011;1940;51.052;13.678;2024-02-04T11:07:23;1.90;;;1.43;;
3849;SDS011;1940;51.052;13.678;2024-02-04T11:09:48;2.03;;;1.40;;
3849;SDS011;1940;51.052;13.678;2024-02-04T11:12:16;1.97;;;1.30;;
3849;SDS011;1940;51.052;13.678;2024-02-04T11:14:45;1.40;;;1.00;;
3849;SDS011;1940;51.052;13.678;2024-02-04T11:20:31;1.47;;;1.30;;
3849;SDS011;1940;51.052;13.678;2024-02-04T11:23:25;1.50;;;1.40;;
3849;SDS011;1940;51.052;13.678;2024-02-04T11:25:54;1.60;;;1.20;;
3849;SDS011;1940;51.052;13.678;2024-02-04T11:28:21;2.33;;;1.40;;
3849;SDS011;1940;51.052;13.678;2024-02-04T11:30:48;13.00;;;1.20;;
3849;SDS011;1940;51.052;13.678;2024-02-04T11:33:17;2.10;;;1.40;;
3849;SDS011;1940;51.052;13.678;2024-02-04T11:35:44;3.03;;;1.67;;
3849;SDS011;1940;51.052;13.678;2024-02-04T11:38:09;2.30;;;1.53;;
3849;SDS011;1940;51.052;13.678;2024-02-04T11:40:36;4.30;;;2.40;;
3849;SDS011;1940;51.052;13.678;2024-02-04T11:43:12;5.00;;;3.30;;
3849;SDS011;1940;51.052;13.678;2024-02-04T11:45:39;3.63;;;2.70;;
3849;SDS011;1940;51.052;13.678;2024-02-04T11:48:09;2.83;;;1.80;;
3849;SDS011;1940;51.052;13.678;2024-02-04T11:50:36;1.90;;;1.40;;
3849;SDS011;1940;51.052;13.678;2024-02-04T11:53:05;2.10;;;1.40;;
3849;SDS011;1940;51.052;13.678;2024-02-04T11:55:35;4.43;;;1.90;;
3849;SDS011;1940;51.052;13.678;2024-02-04T11:58:01;1.63;;;1.33;;
3849;SDS011;1940;51.052;13.678;2024-02-04T12:00:27;2.87;;;2.00;;
3849;SDS011;1940;51.052;13.678;2024-02-04T12:03:03;4.53;;;1.80;;
3849;SDS011;1940;51.052;13.678;2024-02-04T12:05:32;2.13;;;1.50;;
3849;SDS011;1940;51.052;13.678;2024-02-04T12:08:03;3.03;;;1.60;;
3849;SDS011;1940;51.052;13.678;2024-02-04T12:10:33;1.90;;;1.60;;
3849;SDS011;1940;51.052;13.678;2024-02-04T12:13:00;4.47;;;2.07;;
3849;SDS011;1940;51.052;13.678;2024-02-04T12:15:28;4.40;;;1.80;;
3849;SDS011;1940;51.052;13.678;2024-02-04T12:17:55;2.47;;;1.83;;
3849;SDS011;1940;51.052;13.678;2024-02-04T12:20:21;4.00;;;1.50;;
3849;SDS011;1940;51.052;13.678;2024-02-04T12:22:46;2.63;;;1.40;;
3849;SDS011;1940;51.052;13.678;2024-02-04T12:25:13;3.30;;;1.90;;
3849;SDS011;1940;51.052;13.678;2024-02-04T12:27:39;2.03;;;1.57;;
3849;SDS011;1940;51.052;13.678;2024-02-04T12:30:05;2.30;;;1.73;;
3849;SDS011;1940;51.052;13.678;2024-02-04T12:32:32;2.17;;;1.57;;
3849;SDS011;1940;51.052;13.678;2024-02-04T12:34:57;2.43;;;1.77;;
3849;SDS011;1940;51.052;13.678;2024-02-04T12:37:23;1.60;;;1.30;;
3849;SDS011;1940;51.052;13.678;2024-02-04T12:39:49;1.90;;;1.50;;
3849;SDS011;1940;51.052;13.678;2024-02-04T12:42:15;2.60;;;1.67;;
3849;SDS011;1940;51.052;13.678;2024-02-04T12:44:45;2.10;;;1.37;;
3849;SDS011;1940;51.052;13.678;2024-02-04T12:47:18;2.50;;;1.63;;
3849;SDS011;1940;51.052;13.678;2024-02-04T12:49:44;2.60;;;2.00;;
3849;SDS011;1940;51.052;13.678;2024-02-04T12:52:10;2.13;;;1.50;;
3849;SDS011;1940;51.052;13.678;2024-02-04T12:54:44;2.40;;;1.70;;
3849;SDS011;1940;51.052;13.678;2024-02-04T12:57:13;3.20;;;1.90;;
3849;SDS011;1940;51.052;13.678;2024-02-04T12:59:47;7.03;;;2.20;;
3849;SDS011;1940;51.052;13.678;2024-02-04T13:02:13;2.10;;;1.70;;
3849;SDS011;1940;51.052;13.678;2024-02-04T13:04:40;1.87;;;1.40;;
3849;SDS011;1940;51.052;13.678;2024-02-04T13:07:10;4.10;;;1.80;;
3849;SDS011;1940;51.052;13.678;2024-02-04T13:09:41;2.80;;;1.53;;
3849;SDS011;1940;51.052;13.678;2024-02-04T13:12:08;2.60;;;1.80;;
3849;SDS011;1940;51.052;13.678;2024-02-04T13:14:38;2.77;;;1.50;;
3849;SDS011;1940;51.052;13.678;2024-02-04T13:17:04;2.53;;;2.03;;
3849;SDS011;1940;51.052;13.678;2024-02-04T13:19:34;8.37;;;1.70;;
3849;SDS011;1940;51.052;13.678;2024-02-04T13:22:06;1.87;;;1.40;;
3849;SDS011;1940;51.052;13.678;2024-02-04T13:24:34;2.00;;;1.63;;
3849;SDS011;1940;51.052;13.678;2024-02-04T13:27:00;2.10;;;1.50;;
3849;SDS011;1940;51.052;13.678;2024-02-04T13:29:31;1.80;;;1.50;;
3849;SDS011;1940;51.052;13.678;2024-02-04T13:31:56;3.10;;;1.70;;
3849;SDS011;1940;51.052;13.678;2024-02-04T13:34:22;3.80;;;1.60;;
3849;SDS011;1940;51.052;13.678;2024-02-04T13:36:48;4.43;;;1.70;;
3849;SDS011;1940;51.052;13.678;2024-02-04T13:39:13;3.77;;;2.40;;
3849;SDS011;1940;51.052;13.678;2024-02-04T13:41:39;3.70;;;2.23;;
3849;SDS011;1940;51.052;13.678;2024-02-04T13:44:05;3.50;;;2.10;;
3849;SDS011;1940;51.052;13.678;2024-02-04T13:46:31;2.70;;;2.00;;
3849;SDS011;1940;51.052;13.678;2024-02-04T13:48:57;2.50;;;1.73;;
3849;SDS011;1940;51.052;13.678;2024-02-04T13:51:22;4.00;;;1.83;;
3849;SDS011;1940;51.052;13.678;2024-02-04T13:53:48;3.50;;;2.03;;
3849;SDS011;1940;51.052;13.678;2024-02-04T13:56:13;3.90;;;2.00;;
3849;SDS011;1940;51.052;13.678;2024-02-04T13:58:39;2.47;;;1.97;;
3849;SDS011;1940;51.052;13.678;2024-02-04T14:01:04;4.90;;;2.60;;
3849;SDS011;1940;51.052;13.678;2024-02-04T14:03:30;4.43;;;2.20;;
3849;SDS011;1940;51.052;13.678;2024-02-04T14:05:56;4.10;;;2.40;;
3849;SDS011;1940;51.052;13.678;2024-02-04T14:08:21;4.20;;;1.93;;
3849;SDS011;1940;51.052;13.678;2024-02-04T14:10:47;4.27;;;2.30;;
3849;SDS011;1940;51.052;13.678;2024-02-04T14:13:12;4.00;;;2.43;;
3849;SDS011;1940;51.052;13.678;2024-02-04T14:15:38;4.10;;;2.50;;
3849;SDS011;1940;51.052;13.678;2024-02-04T14:18:12;5.60;;;2.70;;
3849;SDS011;1940;51.052;13.678;2024-02-04T14:20:38;2.70;;;2.07;;
3849;SDS011;1940;51.052;13.678;2024-02-04T14:23:03;3.40;;;2.13;;
3849;SDS011;1940;51.052;13.678;2024-02-04T14:25:29;2.73;;;1.73;;
3849;SDS011;1940;51.052;13.678;2024-02-04T14:27:54;2.97;;;1.90;;
3849;SDS011;1940;51.052;13.678;2024-02-04T14:30:20;2.73;;;1.80;;
3849;SDS011;1940;51.052;13.678;2024-02-04T14:32:45;2.73;;;1.83;;
3849;SDS011;1940;51.052;13.678;2024-02-04T14:35:11;1.90;;;1.50;;
3849;SDS011;1940;51.052;13.678;2024-02-04T14:37:36;2.10;;;1.50;;
3849;SDS011;1940;51.052;13.678;2024-02-04T14:40:04;2.40;;;1.70;;
3849;SDS011;1940;51.052;13.678;2024-02-04T14:42:31;4.33;;;1.53;;
3849;SDS011;1940;51.052;13.678;2024-02-04T14:44:57;3.70;;;1.67;;
3849;SDS011;1940;51.052;13.678;2024-02-04T14:47:25;2.63;;;1.47;;
3849;SDS011;1940;51.052;13.678;2024-02-04T14:49:51;2.90;;;1.67;;
3849;SDS011;1940;51.052;13.678;2024-02-04T14:52:16;2.40;;;1.80;;
3849;SDS011;1940;51.052;13.678;2024-02-04T14:54:42;1.90;;;1.70;;
3849;SDS011;1940;51.052;13.678;2024-02-04T14:57:08;2.03;;;1.53;;
3849;SDS011;1940;51.052;13.678;2024-02-04T14:59:34;2.83;;;1.40;;